createdAt,value
2019-02-23T00:01:09.132Z,99.90
2019-02-23T00:03:37.839Z,99.90
2019-02-23T00:06:06.571Z,99.90
2019-02-23T00:08:35.317Z,99.90
2019-02-23T00:11:03.800Z,99.90
2019-02-23T00:13:32.275Z,99.90
2019-02-23T00:16:00.857Z,99.90
2019-02-23T00:18:29.331Z,99.90
2019-02-23T00:20:57.804Z,99.90
2019-02-23T00:23:26.269Z,99.90
2019-02-23T00:25:54.740Z,99.90
2019-02-23T00:28:23.232Z,99.90
2019-02-23T00:30:51.697Z,99.90
2019-02-23T00:33:20.442Z,99.90
2019-02-23T00:35:48.928Z,99.90
2019-02-23T00:38:17.400Z,99.90
2019-02-23T00:40:45.880Z,99.90
2019-02-23T00:43:14.349Z,99.90
2019-02-23T00:45:42.814Z,99.90
2019-02-23T00:48:11.300Z,99.90
2019-02-23T00:50:39.788Z,99.90
2019-02-23T00:53:08.245Z,99.90
2019-02-23T00:55:36.988Z,99.90
2019-02-23T00:58:05.526Z,99.90
2019-02-23T01:00:34.006Z,99.90
2019-02-23T01:03:02.462Z,99.90
2019-02-23T01:05:30.944Z,99.90
2019-02-23T01:07:59.390Z,99.90
2019-02-23T01:10:27.865Z,99.90
2019-02-23T01:12:56.397Z,99.90
2019-02-23T01:15:24.927Z,99.90
2019-02-23T01:17:53.423Z,99.90
2019-02-23T01:20:21.950Z,99.90
2019-02-23T01:22:50.710Z,99.90
2019-02-23T01:25:19.183Z,99.90
2019-02-23T01:27:47.672Z,99.90
2019-02-23T01:30:16.220Z,99.90
2019-02-23T01:32:45.035Z,99.90
2019-02-23T01:35:13.651Z,99.90
2019-02-23T01:37:42.115Z,99.90
2019-02-23T01:40:10.680Z,99.90
2019-02-23T01:42:39.203Z,99.90
2019-02-23T01:45:08.418Z,99.90
2019-02-23T01:47:36.960Z,99.90
2019-02-23T01:50:06.968Z,99.90
2019-02-23T01:52:35.435Z,99.90
2019-02-23T01:55:04.438Z,99.90
2019-02-23T01:57:32.972Z,99.90
2019-02-23T02:00:01.431Z,99.90
2019-02-23T02:02:29.925Z,99.90
2019-02-23T02:04:58.392Z,99.90
2019-02-23T02:07:26.881Z,99.90
2019-02-23T02:09:55.331Z,99.90
2019-02-23T02:12:23.795Z,99.90
2019-02-23T02:14:52.259Z,99.90
2019-02-23T02:17:20.820Z,99.90
2019-02-23T02:19:49.276Z,99.90
2019-02-23T02:22:17.726Z,99.90
2019-02-23T02:24:46.197Z,99.90
2019-02-23T02:27:15.015Z,99.90
2019-02-23T02:29:43.478Z,99.90
2019-02-23T02:32:11.959Z,99.90
2019-02-23T02:34:40.426Z,99.90
2019-02-23T02:37:08.887Z,99.90
2019-02-23T02:39:37.433Z,99.90
2019-02-23T02:42:05.913Z,99.90
2019-02-23T02:44:34.370Z,99.90
2019-02-23T02:47:02.862Z,99.90
2019-02-23T02:49:31.324Z,99.90
2019-02-23T02:51:59.809Z,99.90
2019-02-23T02:54:28.339Z,99.90
2019-02-23T02:56:56.813Z,99.90
2019-02-23T02:59:25.307Z,99.90
2019-02-23T03:01:53.816Z,99.90
2019-02-23T03:04:22.293Z,99.90
2019-02-23T03:06:50.745Z,99.90
2019-02-23T03:09:19.223Z,99.90
2019-02-23T03:11:47.697Z,99.90
2019-02-23T03:14:16.186Z,99.90
2019-02-23T03:16:44.652Z,99.90
2019-02-23T03:19:13.115Z,99.90
2019-02-23T03:21:41.604Z,99.90
2019-02-23T03:24:10.128Z,99.90
2019-02-23T03:26:38.608Z,99.90
2019-02-23T03:29:07.363Z,99.90
2019-02-23T03:31:35.824Z,99.90
2019-02-23T03:34:04.319Z,99.90
2019-02-23T03:36:33.120Z,99.90
2019-02-23T03:39:01.916Z,99.90
2019-02-23T03:41:30.391Z,99.90
2019-02-23T03:43:58.864Z,99.90
2019-02-23T03:46:27.348Z,99.90
2019-02-23T03:48:55.792Z,99.90
2019-02-23T03:51:24.275Z,99.90
2019-02-23T03:53:52.937Z,99.90
2019-02-23T03:56:21.535Z,99.90
2019-02-23T03:58:50.024Z,99.90
2019-02-23T04:01:18.540Z,99.90
2019-02-23T04:03:47.041Z,99.90
2019-02-23T04:06:15.490Z,99.90
2019-02-23T04:08:43.941Z,99.90
2019-02-23T04:11:12.427Z,99.90
2019-02-23T04:13:40.955Z,99.90
2019-02-23T04:16:09.436Z,99.90
2019-02-23T04:18:38.226Z,99.90
2019-02-23T04:21:06.712Z,99.90
2019-02-23T04:23:35.533Z,99.90
2019-02-23T04:26:04.032Z,99.90
2019-02-23T04:28:32.491Z,99.90
2019-02-23T04:31:01.258Z,99.90
2019-02-23T04:33:29.740Z,99.90
2019-02-23T04:35:58.228Z,99.90
2019-02-23T04:38:26.677Z,99.90
2019-02-23T04:40:55.149Z,99.90
2019-02-23T04:43:23.611Z,99.90
2019-02-23T04:45:52.102Z,99.90
2019-02-23T04:48:20.545Z,99.90
2019-02-23T04:50:49.048Z,99.90
2019-02-23T04:53:17.516Z,99.90
2019-02-23T04:55:46.259Z,99.90
2019-02-23T04:58:14.734Z,99.90
2019-02-23T05:00:44.999Z,99.90
2019-02-23T05:03:13.377Z,99.90
2019-02-23T05:05:41.851Z,99.90
2019-02-23T05:08:10.317Z,99.90
2019-02-23T05:10:38.780Z,99.90
2019-02-23T05:13:07.253Z,99.90
2019-02-23T05:15:35.735Z,99.90
2019-02-23T05:18:04.280Z,99.90
2019-02-23T05:20:32.755Z,99.90
2019-02-23T05:23:01.205Z,99.90
2019-02-23T05:25:30.014Z,99.90
2019-02-23T05:27:58.480Z,99.90
2019-02-23T05:30:26.955Z,99.90
2019-02-23T05:32:55.415Z,99.90
2019-02-23T05:35:23.887Z,99.90
2019-02-23T05:37:52.385Z,99.90
2019-02-23T05:40:20.944Z,99.90
2019-02-23T05:43:00.630Z,99.90
2019-02-23T05:45:19.960Z,99.90
2019-02-23T05:47:48.452Z,99.90
2019-02-23T05:50:16.923Z,99.90
2019-02-23T05:52:45.406Z,99.90
2019-02-23T05:55:13.920Z,99.90
2019-02-23T05:57:42.730Z,99.90
2019-02-23T06:00:13.387Z,99.90
2019-02-23T06:02:44.711Z,99.90
2019-02-23T06:05:13.183Z,99.90
2019-02-23T06:07:41.671Z,99.90
2019-02-23T06:10:10.630Z,99.90
2019-02-23T06:12:39.108Z,99.90
2019-02-23T06:15:10.623Z,99.90
2019-02-23T06:17:39.101Z,99.90
2019-02-23T06:20:08.897Z,99.90
2019-02-23T06:22:37.403Z,99.90
2019-02-23T06:25:07.835Z,99.90
2019-02-23T06:27:36.468Z,99.90
2019-02-23T06:30:24.329Z,99.90
2019-02-23T06:32:52.816Z,99.90
2019-02-23T06:35:21.300Z,99.90
2019-02-23T06:37:49.809Z,99.90
2019-02-23T06:40:18.297Z,99.90
2019-02-23T06:42:46.793Z,99.90
2019-02-23T06:45:15.447Z,99.90
2019-02-23T06:47:43.992Z,99.90
2019-02-23T06:50:12.531Z,99.90
2019-02-23T06:52:41.028Z,99.90
2019-02-23T06:55:09.951Z,99.90
2019-02-23T06:57:38.608Z,99.90
2019-02-23T07:00:13.016Z,99.90
2019-02-23T07:02:41.528Z,99.90
2019-02-23T07:05:10.019Z,99.90
2019-02-23T07:07:38.523Z,99.90
2019-02-23T07:10:10.417Z,99.90
2019-02-23T07:12:38.905Z,99.90
2019-02-23T07:15:09.307Z,99.90
2019-02-23T07:17:37.876Z,99.90
2019-02-23T07:20:08.893Z,99.90
2019-02-23T07:22:37.375Z,99.90
2019-02-23T07:25:08.219Z,99.90
2019-02-23T07:27:36.785Z,99.90
2019-02-23T07:30:08.366Z,99.90
2019-02-23T07:32:36.843Z,99.90
2019-02-23T07:35:06.566Z,99.90
2019-02-23T07:37:35.051Z,99.90
2019-02-23T07:40:04.796Z,99.90
2019-02-23T07:42:33.299Z,99.90
2019-02-23T07:45:01.797Z,99.90
2019-02-23T07:47:30.289Z,99.90
2019-02-23T07:49:58.811Z,99.90
2019-02-23T07:52:27.398Z,99.90
2019-02-23T07:54:55.877Z,99.90
2019-02-23T07:57:24.372Z,99.90
2019-02-23T07:59:52.852Z,99.90
2019-02-23T08:02:21.404Z,99.90
2019-02-23T08:04:49.899Z,99.90
2019-02-23T08:07:19.440Z,99.90
2019-02-23T08:09:47.923Z,99.90
2019-02-23T08:12:16.432Z,99.70
2019-02-23T08:14:44.914Z,99.70
2019-02-23T08:17:13.400Z,99.20
2019-02-23T08:19:41.889Z,98.40
2019-02-23T08:22:10.427Z,98.50
2019-02-23T08:24:39.268Z,97.50
2019-02-23T08:27:08.055Z,96.40
2019-02-23T08:29:36.559Z,96.00
2019-02-23T08:32:05.058Z,95.10
2019-02-23T08:34:33.605Z,95.00
2019-02-23T08:37:02.071Z,94.60
2019-02-23T08:39:30.557Z,94.50
2019-02-23T08:41:59.024Z,93.30
2019-02-23T08:44:27.537Z,91.90
2019-02-23T08:46:56.090Z,91.30
2019-02-23T08:49:24.584Z,91.10
2019-02-23T08:51:53.069Z,90.70
2019-02-23T08:54:21.582Z,88.20
2019-02-23T08:56:50.425Z,88.20
2019-02-23T08:59:18.889Z,86.40
2019-02-23T09:01:47.374Z,84.70
2019-02-23T09:04:15.872Z,83.80
2019-02-23T09:06:44.640Z,81.90
2019-02-23T09:09:13.144Z,81.80
2019-02-23T09:11:41.668Z,83.60
2019-02-23T09:14:10.142Z,83.60
2019-02-23T09:16:38.634Z,83.50
2019-02-23T09:19:07.124Z,87.10
2019-02-23T09:21:35.669Z,89.00
2019-02-23T09:24:04.508Z,90.00
2019-02-23T09:26:33.411Z,90.50
2019-02-23T09:29:01.905Z,87.90
2019-02-23T09:31:30.670Z,86.10
2019-02-23T09:33:59.453Z,83.60
2019-02-23T09:36:27.930Z,84.40
2019-02-23T09:38:56.409Z,84.80
2019-02-23T09:41:24.932Z,86.00
2019-02-23T09:43:53.396Z,83.70
2019-02-23T09:46:21.900Z,84.70
2019-02-23T09:48:50.378Z,85.50
2019-02-23T09:51:19.914Z,81.90
2019-02-23T09:53:48.377Z,77.70
2019-02-23T09:56:17.210Z,74.60
2019-02-23T09:58:45.762Z,72.30
2019-02-23T10:01:15.942Z,72.50
2019-02-23T10:03:44.445Z,70.20
2019-02-23T10:06:13.158Z,70.40
2019-02-23T10:08:41.702Z,68.70
2019-02-23T10:11:10.155Z,66.90
2019-02-23T10:13:38.627Z,65.60
2019-02-23T10:16:07.087Z,66.10
2019-02-23T10:18:35.576Z,66.90
2019-02-23T10:21:04.035Z,65.70
2019-02-23T10:23:32.497Z,63.90
2019-02-23T10:26:00.963Z,64.70
2019-02-23T10:28:29.416Z,64.00
2019-02-23T10:30:57.891Z,63.40
2019-02-23T10:33:26.763Z,60.90
2019-02-23T10:35:55.307Z,61.40
2019-02-23T10:38:23.776Z,59.50
2019-02-23T10:40:52.247Z,56.80
2019-02-23T10:43:20.965Z,56.40
2019-02-23T10:45:49.444Z,56.20
2019-02-23T10:48:17.898Z,53.60
2019-02-23T10:50:46.637Z,53.60
2019-02-23T10:53:15.196Z,52.60
2019-02-23T10:55:43.655Z,52.10
2019-02-23T10:58:12.149Z,51.10
2019-02-23T11:00:40.944Z,50.30
2019-02-23T11:03:09.435Z,51.10
2019-02-23T11:05:37.959Z,51.80
2019-02-23T11:08:06.483Z,52.40
2019-02-23T11:10:35.323Z,52.30
2019-02-23T11:13:03.913Z,51.40
2019-02-23T11:15:32.468Z,51.90
2019-02-23T11:18:02.932Z,50.70
2019-02-23T11:20:31.337Z,48.80
2019-02-23T11:22:59.795Z,49.20
2019-02-23T11:25:28.666Z,49.00
2019-02-23T11:27:57.205Z,48.10
2019-02-23T11:30:25.735Z,48.50
2019-02-23T11:32:54.305Z,48.00
2019-02-23T11:35:22.810Z,46.50
2019-02-23T11:37:51.270Z,46.30
2019-02-23T11:40:19.755Z,48.00
2019-02-23T11:42:48.217Z,48.50
2019-02-23T11:45:16.688Z,47.90
2019-02-23T11:47:45.131Z,46.50
2019-02-23T11:50:14.311Z,46.20
2019-02-23T11:52:42.805Z,46.20
2019-02-23T11:55:11.331Z,45.70
2019-02-23T11:57:39.902Z,45.50
2019-02-23T12:00:11.071Z,45.10
2019-02-23T12:02:39.523Z,46.30
2019-02-23T12:05:09.330Z,47.00
2019-02-23T12:07:37.792Z,46.90
2019-02-23T12:10:12.008Z,47.90
2019-02-23T12:12:40.481Z,46.10
2019-02-23T12:15:09.664Z,45.70
2019-02-23T12:17:38.128Z,49.60
2019-02-23T12:20:09.133Z,47.90
2019-02-23T12:22:37.595Z,48.50
2019-02-23T12:25:07.297Z,46.70
2019-02-23T12:27:35.837Z,44.80
2019-02-23T12:30:08.422Z,45.40
2019-02-23T12:32:37.243Z,44.60
2019-02-23T12:35:11.043Z,43.50
2019-02-23T12:37:39.531Z,42.70
2019-02-23T12:40:09.624Z,41.60
2019-02-23T12:42:38.098Z,43.80
2019-02-23T12:45:09.262Z,42.20
2019-02-23T12:47:37.798Z,42.00
2019-02-23T12:50:09.515Z,40.50
2019-02-23T12:52:37.977Z,41.00
2019-02-23T12:55:08.591Z,41.50
2019-02-23T12:57:37.063Z,40.50
2019-02-23T13:00:11.444Z,41.10
2019-02-23T13:02:39.920Z,40.00
2019-02-23T13:05:08.519Z,39.20
2019-02-23T13:07:37.001Z,39.20
2019-02-23T13:10:11.230Z,38.60
2019-02-23T13:13:06.207Z,40.10
2019-02-23T13:15:43.465Z,40.10
2019-02-23T13:18:27.304Z,40.30
2019-02-23T13:21:07.881Z,40.00
2019-02-23T13:24:11.424Z,37.40
2019-02-23T13:27:17.897Z,39.90
2019-02-23T13:30:16.664Z,38.40
2019-02-23T13:33:05.865Z,38.70
2019-02-23T13:35:55.523Z,38.00
2019-02-23T13:38:33.473Z,39.50
2019-02-23T13:41:08.357Z,40.10
2019-02-23T13:43:43.110Z,38.70
2019-02-23T13:46:26.859Z,39.30
2019-02-23T13:49:15.013Z,38.30
2019-02-23T13:51:49.090Z,39.30
2019-02-23T13:54:39.259Z,38.10
2019-02-23T13:57:31.922Z,37.60
2019-02-23T14:00:15.520Z,38.00
2019-02-23T14:02:56.467Z,38.60
2019-02-23T14:05:57.047Z,37.60
2019-02-23T14:08:46.436Z,37.70
2019-02-23T14:11:48.485Z,36.70
2019-02-23T14:14:20.055Z,36.60
2019-02-23T14:17:10.903Z,37.30
2019-02-23T14:20:15.669Z,36.80
2019-02-23T14:23:01.441Z,37.60
2019-02-23T14:25:38.943Z,38.00
2019-02-23T14:28:29.968Z,36.00
2019-02-23T14:31:07.519Z,37.40
2019-02-23T14:34:05.047Z,35.80
2019-02-23T14:36:36.608Z,37.50
2019-02-23T14:39:33.803Z,36.40
2019-02-23T14:42:11.448Z,37.00
2019-02-23T14:44:45.564Z,37.60
2019-02-23T14:47:35.155Z,39.00
2019-02-23T14:50:29.729Z,37.70
2019-02-23T14:53:19.029Z,38.10
2019-02-23T14:55:59.672Z,38.70
2019-02-23T14:58:34.073Z,36.30
2019-02-23T15:01:21.987Z,38.30
2019-02-23T15:04:16.010Z,36.20
2019-02-23T15:06:53.541Z,37.70
2019-02-23T15:09:46.387Z,36.60
2019-02-23T15:12:17.927Z,36.40
2019-02-23T15:15:01.362Z,37.40
2019-02-23T15:17:32.893Z,36.80
2019-02-23T15:20:10.552Z,36.80
2019-02-23T15:22:42.457Z,36.60
2019-02-23T15:25:19.521Z,37.20
2019-02-23T15:28:02.928Z,38.20
2019-02-23T15:30:46.291Z,37.70
2019-02-23T15:33:49.109Z,34.00
2019-02-23T15:36:20.721Z,37.50
2019-02-23T15:39:13.120Z,38.70
2019-02-23T15:42:02.902Z,37.80
2019-02-23T15:44:43.226Z,36.30
2019-02-23T15:47:20.751Z,38.70
2019-02-23T15:49:49.308Z,39.10
2019-02-23T15:52:17.822Z,37.40
2019-02-23T15:54:46.440Z,38.70
2019-02-23T15:57:15.001Z,38.50
2019-02-23T15:59:44.546Z,40.90
2019-02-23T16:02:13.228Z,36.30
2019-02-23T16:04:41.716Z,37.60
2019-02-23T16:07:10.187Z,37.30
2019-02-23T16:09:38.679Z,36.10
2019-02-23T16:12:07.193Z,37.90
2019-02-23T16:14:35.702Z,34.80
2019-02-23T16:17:04.524Z,35.20
2019-02-23T16:20:05.118Z,35.50
2019-02-23T16:22:33.953Z,34.30
2019-02-23T16:25:22.613Z,34.80
2019-02-23T16:27:54.289Z,34.10
2019-02-23T16:30:26.013Z,34.90
2019-02-23T16:32:54.477Z,34.30
2019-02-23T16:35:46.888Z,33.60
2019-02-23T16:38:15.343Z,33.70
2019-02-23T16:40:46.556Z,34.20
2019-02-23T16:43:15.024Z,33.80
2019-02-23T16:45:52.620Z,34.20
2019-02-23T16:48:25.084Z,34.40
2019-02-23T16:50:55.047Z,35.40
2019-02-23T16:53:23.519Z,35.90
2019-02-23T16:56:16.256Z,34.90
2019-02-23T16:58:44.734Z,34.40
2019-02-23T17:01:13.218Z,34.30
2019-02-23T17:03:41.702Z,35.10
2019-02-23T17:06:17.329Z,35.00
2019-02-23T17:08:45.829Z,35.60
2019-02-23T17:11:14.717Z,34.90
2019-02-23T17:13:43.236Z,35.20
2019-02-23T17:16:11.701Z,34.50
2019-02-23T17:21:56.040Z,36.00
2019-02-23T17:27:12.096Z,37.70
2019-02-23T17:29:40.588Z,36.50
2019-02-23T17:32:23.042Z,35.20
2019-02-23T17:38:32.441Z,35.50
2019-02-23T17:47:13.605Z,35.50
2019-02-23T17:49:44.924Z,34.80
2019-02-23T17:52:13.413Z,36.00
2019-02-23T17:57:57.082Z,35.40
2019-02-23T18:00:28.274Z,35.30
2019-02-23T18:06:40.502Z,34.50
2019-02-23T18:09:11.702Z,34.40
2019-02-23T18:11:40.202Z,34.60
2019-02-23T18:14:08.668Z,34.70
2019-02-23T18:16:37.150Z,34.80
2019-02-23T18:19:23.750Z,35.00
2019-02-23T18:21:52.255Z,35.40
2019-02-23T18:24:20.709Z,35.40
2019-02-23T18:26:49.462Z,35.10
2019-02-23T18:29:23.873Z,35.20
2019-02-23T18:31:53.379Z,35.10
2019-02-23T18:34:21.856Z,36.00
2019-02-23T18:36:50.319Z,36.50
2019-02-23T18:39:28.854Z,35.70
2019-02-23T18:41:57.312Z,36.10
2019-02-23T18:44:34.550Z,36.20
2019-02-23T18:53:29.813Z,35.50
2019-02-23T18:56:06.479Z,36.30
2019-02-23T18:59:28.181Z,35.30
2019-02-23T19:01:56.962Z,35.90
2019-02-23T19:04:57.996Z,34.70
2019-02-23T19:07:26.494Z,37.30
2019-02-23T19:10:01.980Z,35.70
2019-02-23T19:12:31.776Z,34.80
2019-02-23T19:18:41.823Z,36.20
2019-02-23T19:21:13.264Z,35.50
2019-02-23T19:23:44.607Z,35.20
2019-02-23T19:26:13.073Z,34.50
2019-02-23T19:28:53.017Z,33.90
2019-02-23T19:31:57.750Z,33.60
2019-02-23T19:34:26.417Z,35.20
2019-02-23T19:37:10.906Z,34.60
2019-02-23T19:39:39.403Z,34.70
2019-02-23T19:45:42.044Z,34.10
2019-02-23T19:48:11.651Z,35.10
2019-02-23T19:50:46.615Z,36.10
2019-02-23T19:53:15.066Z,33.70
2019-02-23T19:55:46.092Z,32.60
2019-02-23T19:58:15.503Z,33.20
2019-02-23T20:00:45.049Z,34.20
2019-02-23T20:03:13.521Z,33.90
2019-02-23T20:05:42.008Z,34.10
2019-02-23T20:08:10.483Z,34.10
2019-02-23T20:10:38.968Z,33.90
2019-02-23T20:13:07.471Z,34.20
2019-02-23T20:15:39.692Z,34.40
2019-02-23T20:18:08.491Z,34.80
2019-02-23T20:20:36.990Z,35.20
2019-02-23T20:23:05.483Z,35.20
2019-02-23T20:25:41.063Z,35.10
2019-02-23T20:28:09.590Z,36.10
2019-02-23T20:30:39.116Z,36.40
2019-02-23T20:33:13.611Z,37.10
2019-02-23T20:35:47.988Z,37.30
2019-02-23T20:38:39.922Z,38.60
2019-02-23T20:41:28.990Z,39.50
2019-02-23T20:43:57.784Z,38.90
2019-02-23T20:46:44.491Z,39.40
2019-02-23T20:49:13.071Z,39.20
2019-02-23T20:51:42.739Z,39.70
2019-02-23T20:54:18.665Z,39.30
2019-02-23T20:56:50.973Z,39.00
2019-02-23T20:59:31.609Z,38.70
2019-02-23T21:02:21.545Z,38.60
2019-02-23T21:04:50.045Z,38.90
2019-02-23T21:07:18.546Z,38.70
2019-02-23T21:09:49.991Z,39.60
2019-02-23T21:12:18.488Z,39.10
2019-02-23T21:15:05.628Z,39.60
2019-02-23T21:17:34.448Z,40.50
2019-02-23T21:20:06.409Z,39.40
2019-02-23T21:22:34.969Z,39.70
2019-02-23T21:25:08.531Z,39.70
2019-02-23T21:27:37.028Z,40.00
2019-02-23T21:30:09.253Z,39.60
2019-02-23T21:32:37.804Z,40.00
2019-02-23T21:35:18.518Z,40.30
2019-02-23T21:37:46.985Z,39.80
2019-02-23T21:40:30.309Z,40.30
2019-02-23T21:42:58.776Z,40.40
2019-02-23T21:48:20.741Z,39.30
2019-02-23T21:50:51.021Z,38.50
2019-02-23T21:53:43.513Z,38.80
2019-02-23T21:59:12.927Z,38.70
2019-02-23T22:01:48.898Z,39.30
2019-02-23T22:04:28.302Z,39.20
2019-02-23T22:06:56.764Z,39.80
2019-02-23T22:09:25.314Z,40.10
2019-02-23T22:11:53.861Z,39.70
2019-02-23T22:14:22.329Z,40.20
2019-02-23T22:16:50.817Z,40.50
2019-02-23T22:19:19.280Z,40.50
2019-02-23T22:21:47.841Z,40.70
2019-02-23T22:24:16.285Z,40.00
2019-02-23T22:26:44.755Z,40.20
2019-02-23T22:29:13.226Z,39.70
2019-02-23T22:31:43.947Z,39.00
2019-02-23T22:34:11.953Z,39.40
2019-02-23T22:36:40.432Z,39.30
2019-02-23T22:39:08.979Z,38.50
2019-02-23T22:41:37.441Z,39.30
2019-02-23T22:44:06.003Z,38.80
2019-02-23T22:46:34.455Z,38.40
2019-02-23T22:49:02.935Z,38.40
2019-02-23T22:51:31.638Z,38.70
2019-02-23T22:54:00.395Z,38.20
2019-02-23T22:56:28.875Z,37.90
2019-02-23T22:58:57.339Z,38.10
2019-02-23T23:01:26.057Z,37.40
2019-02-23T23:03:54.611Z,38.20
2019-02-23T23:06:23.409Z,37.20
2019-02-23T23:08:51.859Z,36.80
2019-02-23T23:11:20.588Z,36.60
2019-02-23T23:13:49.054Z,37.50
2019-02-23T23:16:17.519Z,36.20
2019-02-23T23:18:46.338Z,36.30
2019-02-23T23:21:14.787Z,36.90
2019-02-23T23:23:43.278Z,36.30
2019-02-23T23:26:11.764Z,37.00
2019-02-23T23:28:40.219Z,35.90
2019-02-23T23:31:08.955Z,35.80
2019-02-23T23:33:37.406Z,36.00
2019-02-23T23:36:05.954Z,35.60
2019-02-23T23:38:34.438Z,35.20
2019-02-23T23:41:02.921Z,35.20
2019-02-23T23:43:31.379Z,35.00
2019-02-23T23:46:00.153Z,35.10
2019-02-23T23:48:28.884Z,34.60
2019-02-23T23:50:57.855Z,34.30
2019-02-23T23:53:26.421Z,34.40
2019-02-23T23:55:55.207Z,35.00
2019-02-23T23:58:23.707Z,34.90
